createdAt,value
2023-02-12T00:01:19.169Z,1.99
2023-02-12T00:03:46.512Z,1.98
2023-02-12T00:06:16.061Z,1.96
2023-02-12T00:08:47.238Z,1.95
2023-02-12T00:11:18.171Z,1.97
2023-02-12T00:13:46.477Z,1.96
2023-02-12T00:16:16.967Z,1.95
2023-02-12T00:18:45.945Z,2.00
2023-02-12T00:21:15.458Z,2.05
2023-02-12T00:23:42.806Z,2.04
2023-02-12T00:26:15.526Z,2.07
2023-02-12T00:28:43.472Z,2.14
2023-02-12T00:31:14.655Z,2.15
2023-02-12T00:33:42.648Z,2.19
2023-02-12T00:36:14.691Z,2.14
2023-02-12T00:38:42.262Z,2.07
2023-02-12T00:41:11.577Z,2.28
2023-02-12T00:43:39.180Z,2.24
2023-02-12T00:46:08.000Z,2.40
2023-02-12T00:48:36.393Z,2.36
2023-02-12T00:51:05.287Z,2.27
2023-02-12T00:53:33.684Z,2.31
2023-02-12T00:56:01.681Z,2.41
2023-02-12T00:58:30.257Z,2.50
2023-02-12T01:00:57.616Z,2.44
2023-02-12T01:03:25.957Z,2.38
2023-02-12T01:05:55.067Z,2.36
2023-02-12T01:08:23.568Z,2.42
2023-02-12T01:11:01.139Z,2.46
2023-02-12T01:13:30.669Z,2.52
2023-02-12T01:16:14.894Z,2.49
2023-02-12T01:18:43.950Z,2.58
2023-02-12T01:21:16.716Z,2.63
2023-02-12T01:23:44.825Z,2.66
2023-02-12T01:26:14.422Z,2.62
2023-02-12T01:28:44.421Z,2.70
2023-02-12T01:31:17.077Z,2.67
2023-02-12T01:33:48.594Z,2.68
2023-02-12T01:36:19.207Z,2.57
2023-02-12T01:38:47.878Z,2.67
2023-02-12T01:41:20.209Z,2.50
2023-02-12T01:44:06.087Z,2.54
2023-02-12T01:46:34.361Z,2.57
2023-02-12T01:49:04.400Z,2.56
2023-02-12T01:51:33.478Z,2.58
2023-02-12T01:54:05.675Z,2.60
2023-02-12T01:56:34.907Z,2.62
2023-02-12T01:59:02.931Z,2.61
2023-02-12T02:01:33.741Z,2.71
2023-02-12T02:04:08.186Z,2.77
2023-02-12T02:06:45.374Z,2.73
2023-02-12T02:09:14.642Z,2.74
2023-02-12T02:12:01.862Z,2.70
2023-02-12T02:14:33.004Z,2.74
2023-02-12T02:17:16.106Z,2.67
2023-02-12T02:20:09.806Z,2.67
2023-02-12T02:22:42.396Z,2.63
2023-02-12T02:25:46.262Z,2.71
2023-02-12T02:28:29.453Z,2.69
2023-02-12T02:31:06.485Z,2.69
2023-02-12T02:33:39.282Z,2.62
2023-02-12T02:36:14.657Z,2.48
2023-02-12T02:39:01.812Z,2.46
2023-02-12T02:41:33.671Z,2.38
2023-02-12T02:44:09.198Z,2.37
2023-02-12T02:46:48.243Z,2.34
2023-02-12T02:49:23.971Z,2.27
2023-02-12T02:51:57.162Z,2.27
2023-02-12T02:54:34.803Z,2.31
2023-02-12T02:57:13.729Z,2.28
2023-02-12T02:59:46.870Z,2.31
2023-02-12T03:02:24.104Z,2.34
2023-02-12T03:05:01.361Z,2.38
2023-02-12T03:07:33.775Z,2.38
2023-02-12T03:10:10.365Z,2.44
2023-02-12T03:12:46.043Z,2.37
2023-02-12T03:15:30.127Z,2.36
2023-02-12T03:18:01.373Z,2.44
2023-02-12T03:20:33.631Z,2.37
2023-02-12T03:23:09.157Z,2.27
2023-02-12T03:25:45.207Z,2.23
2023-02-12T03:28:21.269Z,2.20
2023-02-12T03:31:00.231Z,2.19
2023-02-12T03:33:59.228Z,2.15
2023-02-12T03:36:31.796Z,2.14
2023-02-12T03:39:08.959Z,2.13
2023-02-12T03:41:58.711Z,2.11
2023-02-12T03:44:42.678Z,2.07
2023-02-12T03:47:19.776Z,2.11
2023-02-12T03:50:09.740Z,2.11
2023-02-12T03:52:38.050Z,2.09
2023-02-12T03:55:07.140Z,2.10
2023-02-12T03:57:41.615Z,2.10
2023-02-12T04:00:18.984Z,2.10
2023-02-12T04:02:48.038Z,2.14
2023-02-12T04:05:26.807Z,2.11
2023-02-12T04:07:56.752Z,2.09
2023-02-12T04:10:36.905Z,2.11
2023-02-12T04:13:21.586Z,2.13
2023-02-12T04:16:04.856Z,2.14
2023-02-12T04:18:47.244Z,2.22
2023-02-12T04:21:16.910Z,2.15
2023-02-12T04:23:44.839Z,2.13
2023-02-12T04:26:25.623Z,2.09
2023-02-12T04:29:05.567Z,2.12
2023-02-12T04:31:38.430Z,2.12
2023-02-12T04:34:14.594Z,2.09
2023-02-12T04:36:53.620Z,2.10
2023-02-12T04:39:26.166Z,2.12
2023-02-12T04:41:54.651Z,2.15
2023-02-12T04:44:28.251Z,2.14
2023-02-12T04:46:55.974Z,2.14
2023-02-12T04:49:24.773Z,2.13
2023-02-12T04:51:52.127Z,2.09
2023-02-12T04:54:20.868Z,2.13
2023-02-12T04:56:48.422Z,2.13
2023-02-12T04:59:17.244Z,2.12
2023-02-12T05:01:46.097Z,2.13
2023-02-12T05:04:16.463Z,2.17
2023-02-12T05:06:45.722Z,2.15
2023-02-12T05:09:17.799Z,2.16
2023-02-12T05:11:46.203Z,2.13
2023-02-12T05:14:14.586Z,2.18
2023-02-12T05:16:42.454Z,2.14
2023-02-12T05:19:10.086Z,2.15
2023-02-12T05:21:39.591Z,2.11
2023-02-12T05:24:07.894Z,2.16
2023-02-12T05:26:35.497Z,2.13
2023-02-12T05:29:04.270Z,2.14
2023-02-12T05:31:32.300Z,2.15
2023-02-12T05:33:59.951Z,2.12
2023-02-12T05:36:30.620Z,2.15
2023-02-12T05:38:59.942Z,2.15
2023-02-12T05:41:29.387Z,2.17
2023-02-12T05:43:56.704Z,2.16
2023-02-12T05:46:24.430Z,2.16
2023-02-12T05:48:53.105Z,2.16
2023-02-12T05:51:25.902Z,2.14
2023-02-12T05:53:58.976Z,2.09
2023-02-12T05:56:30.433Z,2.11
2023-02-12T05:59:02.463Z,2.06
2023-02-12T06:01:34.517Z,2.06
2023-02-12T06:04:03.509Z,2.11
2023-02-12T06:06:32.206Z,2.07
2023-02-12T06:09:01.748Z,2.04
2023-02-12T06:11:29.952Z,2.02
2023-02-12T06:13:58.434Z,2.13
2023-02-12T06:16:28.537Z,2.16
2023-02-12T06:18:57.100Z,2.12
2023-02-12T06:21:26.936Z,2.24
2023-02-12T06:23:54.159Z,2.32
2023-02-12T06:26:22.326Z,2.33
2023-02-12T06:28:51.257Z,2.36
2023-02-12T06:31:26.246Z,2.38
2023-02-12T06:33:57.033Z,2.30
2023-02-12T06:36:26.290Z,2.31
2023-02-12T06:38:53.535Z,2.31
2023-02-12T06:41:22.678Z,2.29
2023-02-12T06:43:50.080Z,2.26
2023-02-12T06:46:18.127Z,2.19
2023-02-12T06:48:47.502Z,2.21
2023-02-12T06:51:17.702Z,2.16
2023-02-12T06:53:46.167Z,2.17
2023-02-12T06:56:15.547Z,2.15
2023-02-12T06:58:47.207Z,2.13
2023-02-12T07:01:19.022Z,2.14
2023-02-12T07:03:54.448Z,2.16
2023-02-12T07:06:22.572Z,2.15
2023-02-12T07:08:50.938Z,2.17
2023-02-12T07:11:19.964Z,2.26
2023-02-12T07:13:47.862Z,2.20
2023-02-12T07:16:16.689Z,2.16
2023-02-12T07:18:45.758Z,2.15
2023-02-12T07:21:15.707Z,2.13
2023-02-12T07:23:47.950Z,2.12
2023-02-12T07:26:18.678Z,2.12
2023-02-12T07:28:47.634Z,2.12
2023-02-12T07:31:20.263Z,2.13
2023-02-12T07:33:48.905Z,2.14
2023-02-12T07:36:19.993Z,2.13
2023-02-12T07:38:49.632Z,2.15
2023-02-12T07:41:21.320Z,2.32
2023-02-12T07:43:52.990Z,2.37
2023-02-12T07:46:27.300Z,2.49
2023-02-12T07:48:54.558Z,2.46
2023-02-12T07:51:23.459Z,2.54
2023-02-12T07:53:51.637Z,2.51
2023-02-12T07:56:23.544Z,2.43
2023-02-12T07:58:52.888Z,2.51
2023-02-12T08:01:23.940Z,2.44
2023-02-12T08:03:53.227Z,2.42
2023-02-12T08:06:24.080Z,2.42
2023-02-12T08:08:57.819Z,2.45
2023-02-12T08:11:29.545Z,2.40
2023-02-12T08:13:58.398Z,2.34
2023-02-12T08:16:29.890Z,2.35
2023-02-12T08:19:10.531Z,2.33
2023-02-12T08:21:44.963Z,2.41
2023-02-12T08:24:13.772Z,2.43
2023-02-12T08:26:41.372Z,2.45
2023-02-12T08:29:14.591Z,2.38
2023-02-12T08:31:46.015Z,2.51
2023-02-12T08:34:23.487Z,2.45
2023-02-12T08:36:55.374Z,2.54
2023-02-12T08:39:25.310Z,2.45
2023-02-12T08:41:56.322Z,2.52
2023-02-12T08:44:25.878Z,2.57
2023-02-12T08:46:56.535Z,2.56
2023-02-12T08:49:27.946Z,2.54
2023-02-12T08:51:58.038Z,2.51
2023-02-12T08:54:27.850Z,2.58
2023-02-12T08:56:58.333Z,2.57
2023-02-12T08:59:26.800Z,2.59
2023-02-12T09:01:55.229Z,2.71
2023-02-12T09:04:26.953Z,2.77
2023-02-12T09:06:56.334Z,2.86
2023-02-12T09:09:24.218Z,2.86
2023-02-12T09:11:54.099Z,2.88
2023-02-12T09:14:25.508Z,2.94
2023-02-12T09:16:53.865Z,3.00
2023-02-12T09:19:21.231Z,2.90
2023-02-12T09:21:55.850Z,2.93
2023-02-12T09:24:28.320Z,2.81
2023-02-12T09:26:55.600Z,2.83
2023-02-12T09:29:24.363Z,2.84
2023-02-12T09:31:52.343Z,2.89
2023-02-12T09:34:19.577Z,2.91
2023-02-12T09:36:50.077Z,2.86
2023-02-12T09:39:19.037Z,2.91
2023-02-12T09:42:03.864Z,2.88
2023-02-12T09:44:50.562Z,2.93
2023-02-12T09:47:32.141Z,2.98
2023-02-12T09:50:21.082Z,2.95
2023-02-12T09:52:49.455Z,3.02
2023-02-12T09:55:20.031Z,3.12
2023-02-12T09:57:49.090Z,3.22
2023-02-12T10:00:32.137Z,3.21
2023-02-12T10:03:05.888Z,3.30
2023-02-12T10:05:41.694Z,3.28
2023-02-12T10:08:24.572Z,3.34
2023-02-12T10:10:59.197Z,3.31
2023-02-12T10:13:48.713Z,3.46
2023-02-12T10:16:19.384Z,3.41
2023-02-12T10:19:18.034Z,3.44
2023-02-12T10:22:13.956Z,3.53
2023-02-12T10:25:03.317Z,3.54
2023-02-12T10:27:56.147Z,3.51
2023-02-12T10:30:30.075Z,3.63
2023-02-12T10:33:05.287Z,3.71
2023-02-12T10:35:36.224Z,3.76
2023-02-12T10:38:22.960Z,3.75
2023-02-12T10:40:51.522Z,3.70
2023-02-12T10:43:19.241Z,3.71
2023-02-12T10:45:49.538Z,3.72
2023-02-12T10:48:22.438Z,3.73
2023-02-12T10:51:25.754Z,3.80
2023-02-12T10:53:56.059Z,3.73
2023-02-12T10:56:27.138Z,3.79
2023-02-12T10:59:01.118Z,3.76
2023-02-12T11:01:31.273Z,3.78
2023-02-12T11:04:02.969Z,3.93
2023-02-12T11:06:33.426Z,3.93
2023-02-12T11:09:02.586Z,3.94
2023-02-12T11:11:31.697Z,4.02
2023-02-12T11:14:18.814Z,4.06
2023-02-12T11:16:55.741Z,4.21
2023-02-12T11:19:27.462Z,4.21
2023-02-12T11:22:07.896Z,4.14
2023-02-12T11:24:37.562Z,4.22
2023-02-12T11:27:24.993Z,4.26
2023-02-12T11:30:18.015Z,4.25
2023-02-12T11:32:48.525Z,4.30
2023-02-12T11:35:24.683Z,4.36
2023-02-12T11:37:57.878Z,4.44
2023-02-12T11:40:34.929Z,4.47
2023-02-12T11:43:08.928Z,4.50
2023-02-12T11:45:46.388Z,4.40
2023-02-12T11:48:23.072Z,4.43
2023-02-12T11:50:54.844Z,4.41
2023-02-12T11:53:29.046Z,4.45
2023-02-12T11:56:03.047Z,4.47
2023-02-12T11:58:32.313Z,4.56
2023-02-12T12:01:25.088Z,4.65
2023-02-12T12:04:08.950Z,4.64
2023-02-12T12:06:59.054Z,4.62
2023-02-12T12:09:37.507Z,4.69
2023-02-12T12:12:24.990Z,4.73
2023-02-12T12:15:19.668Z,4.68
2023-02-12T12:18:12.649Z,4.64
2023-02-12T12:21:02.881Z,4.74
2023-02-12T12:23:43.812Z,4.74
2023-02-12T12:26:23.523Z,4.76
2023-02-12T12:29:07.260Z,4.79
2023-02-12T12:31:45.708Z,4.79
2023-02-12T12:34:19.704Z,4.79
2023-02-12T12:37:19.738Z,4.89
2023-02-12T12:39:49.085Z,4.88
2023-02-12T12:42:35.937Z,4.82
2023-02-12T12:45:19.986Z,4.84
2023-02-12T12:48:26.175Z,4.99
2023-02-12T12:50:56.727Z,5.07
2023-02-12T12:53:41.727Z,5.06
2023-02-12T12:56:30.797Z,5.14
2023-02-12T12:59:17.548Z,5.20
2023-02-12T13:01:46.539Z,5.12
2023-02-12T13:04:43.879Z,5.21
2023-02-12T13:07:20.082Z,5.26
2023-02-12T13:10:00.852Z,5.30
2023-02-12T13:12:59.200Z,5.46
2023-02-12T13:15:46.921Z,5.52
2023-02-12T13:18:23.328Z,5.50
2023-02-12T13:20:57.317Z,5.51
2023-02-12T13:23:45.474Z,5.52
2023-02-12T13:26:37.927Z,5.48
2023-02-12T13:29:30.148Z,5.45
2023-02-12T13:32:07.467Z,5.49
2023-02-12T13:34:37.563Z,5.53
2023-02-12T13:37:18.846Z,5.60
2023-02-12T13:39:49.964Z,5.66
2023-02-12T13:42:41.430Z,5.60
2023-02-12T13:45:26.200Z,5.73
2023-02-12T13:48:06.821Z,5.82
2023-02-12T13:50:50.651Z,5.87
2023-02-12T13:53:34.828Z,5.79
2023-02-12T13:56:21.431Z,5.96
2023-02-12T13:58:53.256Z,5.92
2023-02-12T14:01:48.081Z,5.85
2023-02-12T14:04:31.496Z,5.90
2023-02-12T14:07:11.303Z,5.88
2023-02-12T14:09:45.820Z,5.97
2023-02-12T14:12:14.836Z,5.89
2023-02-12T14:14:49.115Z,5.87
2023-02-12T14:17:33.895Z,5.91
2023-02-12T14:20:23.911Z,5.87
2023-02-12T14:22:52.229Z,5.86
2023-02-12T14:25:40.099Z,5.84
2023-02-12T14:28:21.948Z,5.89
2023-02-12T14:31:26.356Z,5.82
2023-02-12T14:34:16.999Z,5.94
2023-02-12T14:36:50.293Z,6.01
2023-02-12T14:39:30.579Z,5.92
2023-02-12T14:42:14.013Z,6.00
2023-02-12T14:44:58.137Z,5.95
2023-02-12T14:47:47.082Z,5.95
2023-02-12T14:50:27.857Z,5.96
2023-02-12T14:53:06.429Z,5.99
2023-02-12T14:55:37.207Z,6.05
2023-02-12T14:58:17.124Z,6.15
2023-02-12T15:00:50.099Z,6.23
2023-02-12T15:03:30.910Z,6.40
2023-02-12T15:06:06.079Z,6.79
2023-02-12T15:08:58.962Z,7.20
2023-02-12T15:11:51.232Z,7.79
2023-02-12T15:14:37.749Z,8.74
2023-02-12T15:17:12.792Z,9.34
2023-02-12T15:20:00.368Z,9.62
2023-02-12T15:22:42.450Z,9.75
2023-02-12T15:25:28.195Z,9.55
2023-02-12T15:28:04.922Z,9.40
2023-02-12T15:30:36.805Z,9.04
2023-02-12T15:33:08.787Z,8.74
2023-02-12T15:35:40.554Z,8.29
2023-02-12T15:38:10.081Z,7.94
2023-02-12T15:40:38.630Z,7.73
2023-02-12T15:43:18.791Z,7.57
2023-02-12T15:45:54.503Z,7.34
2023-02-12T15:48:29.545Z,7.21
2023-02-12T15:51:22.237Z,7.03
2023-02-12T15:53:51.205Z,6.92
2023-02-12T15:56:23.702Z,6.76
2023-02-12T15:58:55.682Z,6.62
2023-02-12T16:01:31.497Z,6.54
2023-02-12T16:04:04.359Z,6.49
2023-02-12T16:06:35.780Z,6.38
2023-02-12T16:09:29.785Z,6.29
2023-02-12T16:12:01.673Z,6.03
2023-02-12T16:14:47.373Z,5.79
2023-02-12T16:17:27.695Z,5.50
2023-02-12T16:20:07.564Z,5.40
2023-02-12T16:22:41.466Z,5.38
2023-02-12T16:25:21.727Z,5.37
2023-02-12T16:27:58.351Z,5.39
2023-02-12T16:30:30.260Z,5.34
2023-02-12T16:32:59.080Z,5.15
2023-02-12T16:35:29.915Z,5.15
2023-02-12T16:38:32.286Z,5.12
2023-02-12T16:41:25.294Z,5.05
2023-02-12T16:44:27.281Z,4.97
2023-02-12T16:46:57.910Z,4.92
2023-02-12T16:49:27.937Z,4.83
2023-02-12T16:52:20.711Z,4.74
2023-02-12T16:54:49.070Z,4.60
2023-02-12T16:57:16.710Z,4.54
2023-02-12T16:59:46.099Z,4.43
2023-02-12T17:02:16.108Z,4.43
2023-02-12T17:04:43.768Z,4.44
2023-02-12T17:07:22.953Z,4.43
2023-02-12T17:09:50.708Z,4.41
2023-02-12T17:12:19.470Z,4.37
2023-02-12T17:14:50.053Z,4.36
2023-02-12T17:17:19.342Z,4.30
2023-02-12T17:19:48.281Z,4.25
2023-02-12T17:22:22.947Z,4.11
2023-02-12T17:24:54.130Z,4.03
2023-02-12T17:27:22.487Z,3.92
2023-02-12T17:29:50.575Z,3.76
2023-02-12T17:32:19.276Z,3.71
2023-02-12T17:34:49.142Z,3.66
2023-02-12T17:37:22.576Z,3.63
2023-02-12T17:39:50.807Z,3.60
2023-02-12T17:42:19.126Z,3.58
2023-02-12T17:44:47.782Z,3.56
2023-02-12T17:47:18.430Z,3.57
2023-02-12T17:49:46.302Z,3.42
2023-02-12T17:52:15.762Z,3.40
2023-02-12T17:54:47.051Z,3.35
2023-02-12T17:57:16.221Z,3.43
2023-02-12T17:59:46.233Z,3.43
2023-02-12T18:02:15.093Z,3.39
2023-02-12T18:04:44.359Z,3.36
2023-02-12T18:07:12.685Z,3.36
2023-02-12T18:09:40.198Z,3.37
2023-02-12T18:12:08.164Z,3.33
2023-02-12T18:14:37.626Z,3.33
2023-02-12T18:17:07.285Z,3.27
2023-02-12T18:19:35.753Z,3.29
2023-02-12T18:22:02.898Z,3.25
2023-02-12T18:24:31.725Z,3.25
2023-02-12T18:27:01.591Z,3.23
2023-02-12T18:29:28.569Z,3.17
2023-02-12T18:31:57.226Z,3.21
2023-02-12T18:34:27.324Z,3.03
2023-02-12T18:36:55.979Z,3.03
2023-02-12T18:39:25.779Z,3.03
2023-02-12T18:41:52.840Z,3.06
2023-02-12T18:44:21.363Z,3.08
2023-02-12T18:46:48.808Z,3.04
2023-02-12T18:49:17.078Z,3.04
2023-02-12T18:51:45.085Z,3.04
2023-02-12T18:54:13.785Z,3.05
2023-02-12T18:56:44.289Z,3.05
2023-02-12T18:59:14.125Z,3.07
2023-02-12T19:01:42.046Z,3.06
2023-02-12T19:04:12.908Z,2.98
2023-02-12T19:06:44.446Z,2.98
2023-02-12T19:09:16.853Z,2.97
2023-02-12T19:11:47.203Z,2.94
2023-02-12T19:14:16.471Z,2.90
2023-02-12T19:16:45.384Z,2.88
2023-02-12T19:19:14.488Z,2.88
2023-02-12T19:21:42.876Z,2.88
2023-02-12T19:24:12.560Z,2.92
2023-02-12T19:26:40.560Z,2.91
2023-02-12T19:29:08.288Z,2.88
2023-02-12T19:31:38.120Z,2.86
2023-02-12T19:34:09.041Z,2.82
2023-02-12T19:36:37.725Z,2.86
2023-02-12T19:39:06.644Z,2.76
2023-02-12T19:41:42.739Z,2.77
2023-02-12T19:44:13.305Z,2.77
2023-02-12T19:46:42.209Z,2.77
2023-02-12T19:49:15.233Z,2.70
2023-02-12T19:51:44.065Z,2.76
2023-02-12T19:54:13.774Z,2.74
2023-02-12T19:56:42.573Z,2.71
2023-02-12T19:59:13.064Z,2.70
2023-02-12T20:01:41.023Z,2.74
2023-02-12T20:04:09.546Z,2.77
2023-02-12T20:06:39.663Z,2.66
2023-02-12T20:09:09.396Z,2.53
2023-02-12T20:11:38.946Z,2.58
2023-02-12T20:14:09.843Z,2.54
2023-02-12T20:16:43.806Z,2.40
2023-02-12T20:19:15.672Z,2.48
2023-02-12T20:21:45.685Z,2.40
2023-02-12T20:24:14.561Z,2.31
2023-02-12T20:26:42.017Z,2.29
2023-02-12T20:29:10.806Z,2.30
2023-02-12T20:31:38.917Z,2.25
2023-02-12T20:34:10.786Z,2.19
2023-02-12T20:36:40.276Z,2.16
2023-02-12T20:39:11.171Z,2.14
2023-02-12T20:41:39.434Z,2.18
2023-02-12T20:44:12.211Z,2.23
2023-02-12T20:46:42.401Z,2.20
2023-02-12T20:49:12.820Z,2.25
2023-02-12T20:51:40.876Z,2.19
2023-02-12T20:54:09.191Z,2.12
2023-02-12T20:56:38.427Z,2.12
2023-02-12T20:59:08.981Z,2.02
2023-02-12T21:01:39.765Z,2.00
2023-02-12T21:04:12.352Z,1.98
2023-02-12T21:06:42.873Z,1.92
2023-02-12T21:09:13.689Z,2.00
2023-02-12T21:11:46.064Z,1.93
2023-02-12T21:14:22.366Z,1.91
2023-02-12T21:16:54.659Z,1.95
2023-02-12T21:19:24.151Z,1.84
2023-02-12T21:21:54.730Z,1.79
2023-02-12T21:24:26.194Z,1.69
2023-02-12T21:26:56.302Z,1.62
2023-02-12T21:29:28.324Z,1.49
2023-02-12T21:31:56.502Z,1.38
2023-02-12T21:34:26.234Z,1.37
2023-02-12T21:36:56.326Z,1.39
2023-02-12T21:39:29.308Z,1.37
2023-02-12T21:42:01.705Z,1.33
2023-02-12T21:44:30.614Z,1.28
2023-02-12T21:46:59.540Z,1.20
2023-02-12T21:49:28.544Z,1.17
2023-02-12T21:51:58.509Z,1.12
2023-02-12T21:54:29.064Z,1.05
2023-02-12T21:56:58.047Z,1.04
2023-02-12T21:59:26.892Z,1.07
2023-02-12T22:01:59.290Z,1.00
2023-02-12T22:04:29.444Z,1.04
2023-02-12T22:06:58.254Z,1.04
2023-02-12T22:09:27.133Z,0.97
2023-02-12T22:11:56.205Z,1.03
2023-02-12T22:14:25.665Z,0.94
2023-02-12T22:16:53.403Z,0.83
2023-02-12T22:19:21.662Z,0.89
2023-02-12T22:21:52.155Z,0.83
2023-02-12T22:24:20.788Z,0.85
2023-02-12T22:26:49.199Z,0.76
2023-02-12T22:29:18.919Z,0.68
2023-02-12T22:31:48.331Z,0.69
2023-02-12T22:34:20.275Z,0.75
2023-02-12T22:36:49.508Z,0.66
2023-02-12T22:39:19.282Z,0.58
2023-02-12T22:41:46.473Z,0.59
2023-02-12T22:44:15.826Z,0.47
2023-02-12T22:46:45.007Z,0.54
2023-02-12T22:49:13.902Z,0.48
2023-02-12T22:51:41.976Z,0.45
2023-02-12T22:54:14.855Z,0.44
2023-02-12T22:56:43.257Z,0.40
2023-02-12T22:59:12.145Z,0.48
2023-02-12T23:01:41.265Z,0.52
2023-02-12T23:04:12.636Z,0.31
2023-02-12T23:06:39.576Z,0.21
2023-02-12T23:09:07.444Z,0.19
2023-02-12T23:11:35.099Z,0.07
2023-02-12T23:14:03.899Z,0.08
2023-02-12T23:16:33.184Z,0.14
2023-02-12T23:19:02.593Z,0.23
2023-02-12T23:21:33.652Z,0.07
2023-02-12T23:24:02.027Z,0.13
2023-02-12T23:26:31.551Z,-0.04
2023-02-12T23:29:01.010Z,-0.09
2023-02-12T23:31:28.709Z,-0.23
2023-02-12T23:33:55.706Z,-0.22
2023-02-12T23:36:24.906Z,-0.15
2023-02-12T23:38:52.374Z,-0.22
2023-02-12T23:41:19.968Z,-0.28
2023-02-12T23:43:48.468Z,-0.32
2023-02-12T23:46:18.116Z,-0.41
2023-02-12T23:48:46.202Z,-0.37
2023-02-12T23:51:14.656Z,-0.47
2023-02-12T23:53:41.490Z,-0.42
2023-02-12T23:56:10.665Z,-0.45
2023-02-12T23:58:38.243Z,-0.44
